Opsrey — WDD8295 — position and weather

sailwx.info

Track history (hours):
 
Tides and Currents Weather Stations Pressure Air Temp Water Temp Dewpoint Dewpoint Depression Visibility Wind Speed Wind Dir Waves Ship Positions

Opsrey

Owner: Clarke Jr, John H, Centreville, MD. More information available from US FCC via Universal Licensing System and Coast Guard Vessel Documentation Center.

Last reported at 2017-Jul-20 17:21 UTC. Time now 2017-Jul-28 10:57 UTC.
Position N 40°44' W 073°58'.

Length 14 m.

Type: Sailing vessel. MMSI: 367197380.

Date/timePositionNaut miles runAvg speedWind from/ knotsBaromVisibWave heightAir tempDewpointWater temp
2017-Jul-20 17:21N 40°44' W 073°58'1 3.4
2017-Jul-20 16:56N 40°43' W 073°58'1 1.8
2017-Jul-20 16:28N 40°42' W 073°59'1 1.2
2017-Jul-20 15:45N 40°42' W 074°00'1 3.2
2017-Jul-20 15:31N 40°42' W 074°01'1 1.8
2017-Jul-20 14:59N 40°43' W 074°02'5 0.3
2017-Jul-19 20:17N 40°48' W 073°59'0 1.1
2017-Jul-19 19:54N 40°48' W 073°59'1 3.0
2017-Jul-19 19:25N 40°49' W 073°58'2 3.8
2017-Jul-19 19:00N 40°51' W 073°57'0 0.4
2017-Jul-19 18:30N 40°51' W 073°57'2 4.1
2017-Jul-19 18:00N 40°49' W 073°58'2 3.7
2017-Jul-19 17:30N 40°47' W 073°60'1 0.0
2017-Jul-17 16:56N 40°48' W 073°59'0 0.0
2017-Jul-17 16:26N 40°48' W 073°59'0 0.0
2017-Jul-17 15:59N 40°48' W 073°59'0 0.0
2017-Jul-17 15:29N 40°48' W 073°59'0 0.0
2017-Jul-17 14:59N 40°48' W 073°59'0 0.0
2017-Jul-17 14:29N 40°48' W 073°59'0 0.0
2017-Jul-17 13:50N 40°48' W 073°59'0 0.0
2017-Jul-17 13:23N 40°48' W 073°59'0 0.0
2017-Jul-17 12:50N 40°48' W 073°59'0 0.0
2017-Jul-17 12:23N 40°48' W 073°59'0 0.0
2017-Jul-17 11:59N 40°48' W 073°59'0 0.0
2017-Jul-17 11:26N 40°48' W 073°59'0 0.0
2017-Jul-17 10:53N 40°48' W 073°59'0 0.0
2017-Jul-17 10:29N 40°48' W 073°59'0 0.0
2017-Jul-17 09:59N 40°48' W 073°59'0 0.0
2017-Jul-17 09:29N 40°48' W 073°59'0 0.0
2017-Jul-17 08:56N 40°48' W 073°59'0 0.0
2017-Jul-17 08:29N 40°48' W 073°59'0 0.0
2017-Jul-17 07:50N 40°48' W 073°59'0 0.0
2017-Jul-17 07:23N 40°48' W 073°59'0 0.0
2017-Jul-17 06:56N 40°48' W 073°59'0 0.0
2017-Jul-17 06:26N 40°48' W 073°59'0 0.0
2017-Jul-17 05:56N 40°48' W 073°59'0 0.0
2017-Jul-17 05:29N 40°48' W 073°59'0 0.0
2017-Jul-17 04:59N 40°48' W 073°59'0 0.0
2017-Jul-17 04:29N 40°48' W 073°59'0 0.0
2017-Jul-17 03:59N 40°48' W 073°59'0 0.0
2017-Jul-17 03:29N 40°48' W 073°59'0 0.0
2017-Jul-17 02:59N 40°48' W 073°59'0 0.0
2017-Jul-17 02:26N 40°48' W 073°59'0 0.0
2017-Jul-17 01:59N 40°48' W 073°59'0 0.0
2017-Jul-17 01:26N 40°48' W 073°59'0 0.0
2017-Jul-17 00:59N 40°48' W 073°59'0 0.0
2017-Jul-17 00:29N 40°48' W 073°59'0 0.0
2017-Jul-16 23:50N 40°48' W 073°59'0 0.0
2017-Jul-16 23:17N 40°48' W 073°59'0 0.0
2017-Jul-16 22:59N 40°48' W 073°59'0 0.0
2017-Jul-16 22:14N 40°48' W 073°59'0 0.0
2017-Jul-16 21:44N 40°48' W 073°59'0 0.0
2017-Jul-16 21:17N 40°48' W 073°59'0 0.0
2017-Jul-16 20:59N 40°48' W 073°59'0 0.0
2017-Jul-16 20:20N 40°48' W 073°59'0 0.0
2017-Jul-16 19:50N 40°48' W 073°59'0 0.0
2017-Jul-16 19:29N 40°48' W 073°59'0 0.0
2017-Jul-16 18:59N 40°48' W 073°59'0 0.0
2017-Jul-16 18:26N 40°48' W 073°59'0 0.0
2017-Jul-16 17:56N 40°48' W 073°59'0 0.0
2017-Jul-16 17:29N 40°48' W 073°59'0 0.0
2017-Jul-16 16:56N 40°48' W 073°59'0 0.0
2017-Jul-16 16:26N 40°48' W 073°59'0 0.0
2017-Jul-16 15:59N 40°48' W 073°59'0 0.0
2017-Jul-16 15:29N 40°48' W 073°59'0 0.0
2017-Jul-16 14:53N 40°48' W 073°59'0 0.0
2017-Jul-16 14:29N 40°48' W 073°59'0 0.0
2017-Jul-16 13:53N 40°48' W 073°59'0 0.0
2017-Jul-16 13:29N 40°48' W 073°59'0 0.0
2017-Jul-16 12:59N 40°48' W 073°59'0 0.0
2017-Jul-16 12:20N 40°48' W 073°59'0 0.0
2017-Jul-16 11:59N 40°48' W 073°59'0 0.0
2017-Jul-16 11:11N 40°48' W 073°59'0 0.0
2017-Jul-16 10:59N 40°48' W 073°59'0 0.0
2017-Jul-16 10:23N 40°48' W 073°59'0 0.0
2017-Jul-16 09:59N 40°48' W 073°59'0 0.0
2017-Jul-16 09:26N 40°48' W 073°59'0 0.0
2017-Jul-16 08:59N 40°48' W 073°59'0 0.0
2017-Jul-16 08:26N 40°48' W 073°59'0 0.0
2017-Jul-16 07:53N 40°48' W 073°59'0 0.0
2017-Jul-16 07:26N 40°48' W 073°59'0 0.0
2017-Jul-16 06:56N 40°48' W 073°59'0 0.0
2017-Jul-16 06:11N 40°48' W 073°59'0 0.0
2017-Jul-16 05:53N 40°48' W 073°59'0 0.0
2017-Jul-16 05:26N 40°48' W 073°59'0 0.0
2017-Jul-16 04:50N 40°48' W 073°59'0 0.0
2017-Jul-16 04:26N 40°48' W 073°59'0 0.0
2017-Jul-16 03:50N 40°48' W 073°59'0 0.0
2017-Jul-16 03:20N 40°48' W 073°59'0 0.0
2017-Jul-16 02:56N 40°48' W 073°59'0 0.0
2017-Jul-16 02:29N 40°48' W 073°59'0 0.0
2017-Jul-16 01:59N 40°48' W 073°59'0 0.0
2017-Jul-16 01:29N 40°48' W 073°59'0 0.0
2017-Jul-16 00:59N 40°48' W 073°59'0 0.0
2017-Jul-16 00:29N 40°48' W 073°59'0 0.0
2017-Jul-15 23:59N 40°48' W 073°59'0 0.0
2017-Jul-15 23:29N 40°48' W 073°59'0 0.0
2017-Jul-15 22:59N 40°48' W 073°59'0 0.0
2017-Jul-15 22:29N 40°48' W 073°59'0 0.0
2017-Jul-15 21:59N 40°48' W 073°59'0 0.0
2017-Jul-15 21:29N 40°48' W 073°59'0 0.0
2017-Jul-15 20:59N 40°48' W 073°59'0 0.0
2017-Jul-15 20:20N 40°48' W 073°59'0 0.0
2017-Jul-15 19:59N 40°48' W 073°59'0 0.0
2017-Jul-15 19:26N 40°48' W 073°59'0 0.0
2017-Jul-15 18:35N 40°48' W 073°59'0 0.0
2017-Jul-15 18:26N 40°48' W 073°59'0 0.0
2017-Jul-15 17:38N 40°48' W 073°59'0 0.0
2017-Jul-15 17:26N 40°48' W 073°59'0 0.0
2017-Jul-15 16:59N 40°48' W 073°59'0 0.0
2017-Jul-15 16:23N 40°48' W 073°59'0 0.0
2017-Jul-15 15:53N 40°48' W 073°59'0 0.0
2017-Jul-15 15:26N 40°48' W 073°59'0 0.0
2017-Jul-15 14:32N 40°48' W 073°59'0 0.0
2017-Jul-15 13:53N 40°48' W 073°59'0 0.0
2017-Jul-15 13:29N 40°48' W 073°59'0 0.0
2017-Jul-15 12:59N 40°48' W 073°59'0 0.0
2017-Jul-15 12:26N 40°48' W 073°59'0 0.0
2017-Jul-15 11:59N 40°48' W 073°59'0 0.0
2017-Jul-15 11:29N 40°48' W 073°59'0 0.0
2017-Jul-15 10:53N 40°48' W 073°59'0 0.0
2017-Jul-15 10:23N 40°48' W 073°59'0 0.0
2017-Jul-15 09:44N 40°48' W 073°59'0 0.0
2017-Jul-15 09:29N 40°48' W 073°59'0 0.0
2017-Jul-15 08:53N 40°48' W 073°59'0 0.0
2017-Jul-15 08:29N 40°48' W 073°59'0 0.0
2017-Jul-15 06:56N 40°48' W 073°59'0 0.0
2017-Jul-15 06:29N 40°48' W 073°59'0 0.0
2017-Jul-15 05:56N 40°48' W 073°59'0 0.0
2017-Jul-15 05:23N 40°48' W 073°59'0 0.0
2017-Jul-15 04:44N 40°48' W 073°59'0 0.0
2017-Jul-15 04:26N 40°48' W 073°59'0 0.0
2017-Jul-15 03:50N 40°48' W 073°59'0 0.0
2017-Jul-15 03:29N 40°48' W 073°59'0 0.0
2017-Jul-15 02:59N 40°48' W 073°59'0 0.0
2017-Jul-15 02:26N 40°48' W 073°59'0 0.0
2017-Jul-15 01:57N 40°48' W 073°59'0 0.0
2017-Jul-15 01:26N 40°48' W 073°59'0 0.0
2017-Jul-15 00:59N 40°48' W 073°59'0 0.0
2017-Jul-15 00:26N 40°48' W 073°59'0 0.0
2017-Jul-14 23:59N 40°48' W 073°59'0 0.0
2017-Jul-14 23:30N 40°48' W 073°59'0 0.0
2017-Jul-14 22:56N 40°48' W 073°59'0 0.0
2017-Jul-14 22:30N 40°48' W 073°59'0 0.0
2017-Jul-14 21:56N 40°48' W 073°59'0 0.0
2017-Jul-14 21:24N 40°48' W 073°59'0 0.0
2017-Jul-14 20:57N 40°48' W 073°59'0 0.0
2017-Jul-14 20:24N 40°48' W 073°59'0 0.0
2017-Jul-14 19:03N 40°48' W 073°59'0 0.0
2017-Jul-14 18:54N 40°48' W 073°59'0 0.0
2017-Jul-14 18:21N 40°48' W 073°59'0 0.0
2017-Jul-14 16:57N 40°48' W 073°59'0 0.0
2017-Jul-14 15:33N 40°48' W 073°59'0 0.0
2017-Jul-14 14:45N 40°48' W 073°59'0 0.0
2017-Jul-14 14:27N 40°48' W 073°59'0 0.0
2017-Jul-14 13:54N 40°48' W 073°59'0 0.0
2017-Jul-14 13:30N 40°48' W 073°59'0 0.0
2017-Jul-14 12:57N 40°48' W 073°59'0 0.0
2017-Jul-14 12:30N 40°48' W 073°59'0 0.0
2017-Jul-14 11:57N 40°48' W 073°59'0 0.0
2017-Jul-14 11:30N 40°48' W 073°59'0 0.0
2017-Jul-14 10:57N 40°48' W 073°59'0 0.0
2017-Jul-14 10:30N 40°48' W 073°59'0 0.0
2017-Jul-14 10:00N 40°48' W 073°59'0 0.0
2017-Jul-14 09:27N 40°48' W 073°59'0 0.0
2017-Jul-14 08:57N 40°48' W 073°59'0 0.0
2017-Jul-14 08:27N 40°48' W 073°59'0 0.0
2017-Jul-14 08:00N 40°48' W 073°59'0 0.0
2017-Jul-14 07:30N 40°48' W 073°59'0 0.0
2017-Jul-14 06:27N 40°48' W 073°59'0 0.0
2017-Jul-14 05:57N 40°48' W 073°59'0 0.0
2017-Jul-14 05:27N 40°48' W 073°59'0 0.0
2017-Jul-14 04:57N 40°48' W 073°59'0 0.0
2017-Jul-14 04:27N 40°48' W 073°59'0 0.0
2017-Jul-14 03:57N 40°48' W 073°59'0 0.0
2017-Jul-14 03:24N 40°48' W 073°59'0 0.0
2017-Jul-14 02:57N 40°48' W 073°59'0 0.0
2017-Jul-14 02:21N 40°48' W 073°59'0 0.0
2017-Jul-14 01:57N 40°48' W 073°59'0 0.0
2017-Jul-14 01:30N 40°48' W 073°59'0 0.0
2017-Jul-14 01:00N 40°48' W 073°59'0 0.0
2017-Jul-14 00:24N 40°48' W 073°59'0 0.0
2017-Jul-13 23:54N 40°48' W 073°59'0 0.0
2017-Jul-13 23:30N 40°48' W 073°59'0 0.0
2017-Jul-13 23:00N 40°48' W 073°59'0 0.0
2017-Jul-13 22:24N 40°48' W 073°59'0 0.0
2017-Jul-13 22:00N 40°48' W 073°59'0 0.0
2017-Jul-13 21:24N 40°48' W 073°59'0 0.0
2017-Jul-13 20:54N 40°48' W 073°59'0 0.0
2017-Jul-13 20:30N 40°48' W 073°59'0 0.0
2017-Jul-13 20:00N 40°48' W 073°59'0 0.0
2017-Jul-13 19:30N 40°48' W 073°59'0 0.0
2017-Jul-13 18:57N 40°48' W 073°59'0 0.0
2017-Jul-13 18:27N 40°48' W 073°59'0 0.0
2017-Jul-13 17:51N 40°48' W 073°59'0 0.0
2017-Jul-13 17:27N 40°48' W 073°59'0 0.0
2017-Jul-13 16:54N 40°48' W 073°59'0 0.0
2017-Jul-13 16:30N 40°48' W 073°59'0 0.0
2017-Jul-13 15:03N 40°48' W 073°59'0 0.0
2017-Jul-13 14:51N 40°48' W 073°59'0 0.0
2017-Jul-13 14:27N 40°48' W 073°59'0 0.0
2017-Jul-13 13:57N 40°48' W 073°59'0 0.0
2017-Jul-13 13:30N 40°48' W 073°59'0 0.0
2017-Jul-13 12:57N 40°48' W 073°59'0 0.0
2017-Jul-13 12:27N 40°48' W 073°59'0 0.0
2017-Jul-13 12:00N 40°48' W 073°59'0 0.0
2017-Jul-13 10:48N 40°48' W 073°59'0 0.0
2017-Jul-13 10:30N 40°48' W 073°59'0 0.0
2017-Jul-13 10:00N 40°48' W 073°59'0 0.0
2017-Jul-13 09:27N 40°48' W 073°59'0 0.0
2017-Jul-13 09:00N 40°48' W 073°59'0 0.0
2017-Jul-13 08:30N 40°48' W 073°59'0 0.0
2017-Jul-13 08:00N 40°48' W 073°59'0 0.0
2017-Jul-13 07:30N 40°48' W 073°59'0 0.0
2017-Jul-13 06:57N 40°48' W 073°59'0 0.0
2017-Jul-13 06:03N 40°48' W 073°59'0 0.0
2017-Jul-13 05:57N 40°48' W 073°59'0 0.0
2017-Jul-13 04:03N 40°48' W 073°59'0 0.0
2017-Jul-13 03:51N 40°48' W 073°59'0 0.0
2017-Jul-13 03:21N 40°48' W 073°59'0 0.0
2017-Jul-13 02:57N 40°48' W 073°59'0 0.0
2017-Jul-13 01:09N 40°48' W 073°59'0 0.0
2017-Jul-13 00:45N 40°48' W 073°59'0 0.0
2017-Jul-13 00:21N 40°48' W 073°59'0 0.0
2017-Jul-12 23:48N 40°48' W 073°59'0 0.0
2017-Jul-12 23:30N 40°48' W 073°59'0 0.0
2017-Jul-12 23:00N 40°48' W 073°59'0 0.0
2017-Jul-12 22:30N 40°48' W 073°59'0 0.0
2017-Jul-12 21:57N 40°48' W 073°59'0 0.0
2017-Jul-12 21:15N 40°48' W 073°59'0 0.0
2017-Jul-12 20:54N 40°48' W 073°59'0 0.0
2017-Jul-12 20:30N 40°48' W 073°59'0 0.0
2017-Jul-12 20:00N 40°48' W 073°59'0 0.0
2017-Jul-12 19:27N 40°48' W 073°59'0 0.0
2017-Jul-12 18:51N 40°48' W 073°59'0 0.0
2017-Jul-12 17:51N 40°48' W 073°59'0 0.0
2017-Jul-12 17:27N 40°48' W 073°59'0 0.0
2017-Jul-12 17:00N 40°48' W 073°59'0 0.0
2017-Jul-12 16:21N 40°48' W 073°59'0 0.0
2017-Jul-12 15:45N 40°48' W 073°59'0 0.0
2017-Jul-12 15:27N 40°48' W 073°59'0 0.0
2017-Jul-12 14:48N 40°48' W 073°59'0 0.0
2017-Jul-12 13:57N 40°48' W 073°59'0 0.0
2017-Jul-12 13:30N 40°48' W 073°59'0 0.0
2017-Jul-12 12:57N 40°48' W 073°59'0 0.0
2017-Jul-12 12:30N 40°48' W 073°59'0 0.0
2017-Jul-12 12:00N 40°48' W 073°59'0 0.0
2017-Jul-12 11:27N 40°48' W 073°59'0 0.0
2017-Jul-12 10:39N 40°48' W 073°59'0 0.0
2017-Jul-12 10:27N 40°48' W 073°59'0 0.0
2017-Jul-12 10:00N 40°48' W 073°59'0 0.0
2017-Jul-12 09:03N 40°48' W 073°59'0 0.0
2017-Jul-12 08:57N 40°48' W 073°59'0 0.0
2017-Jul-12 08:27N 40°48' W 073°59'0 0.0
2017-Jul-12 07:57N 40°48' W 073°59'0 0.0
2017-Jul-12 07:21N 40°48' W 073°59'0 0.0
2017-Jul-12 07:00N 40°48' W 073°59'0 0.0
2017-Jul-12 06:30N 40°48' W 073°59'0 0.0
2017-Jul-12 06:00N 40°48' W 073°59'0 0.0
2017-Jul-12 05:27N 40°48' W 073°59'0 0.0
2017-Jul-12 04:57N 40°48' W 073°59'0 0.0
2017-Jul-12 04:30N 40°48' W 073°59'0 0.0
2017-Jul-12 03:45N 40°48' W 073°59'0 0.0
2017-Jul-12 03:30N 40°48' W 073°59'0 0.0
2017-Jul-12 02:42N 40°48' W 073°59'0 0.0
2017-Jul-12 02:09N 40°48' W 073°59'0 0.0
2017-Jul-12 01:57N 40°48' W 073°59'0 0.0
2017-Jul-12 00:33N 40°48' W 073°59'0 0.1
2017-Jul-12 00:27N 40°48' W 073°59'0 0.0
2017-Jul-12 00:00N 40°48' W 073°59'0 0.0
2017-Jul-11 23:30N 40°48' W 073°59'0 0.0
2017-Jul-11 22:39N 40°48' W 073°59'0 0.0
2017-Jul-11 22:30N 40°48' W 073°59'0 0.0
2017-Jul-11 22:00N 40°48' W 073°59'0 0.0
2017-Jul-11 21:27N 40°48' W 073°59'0 0.0
2017-Jul-11 21:00N 40°48' W 073°59'0 0.0
2017-Jul-11 20:21N 40°48' W 073°59'0 0.0
2017-Jul-11 19:57N 40°48' W 073°59'0 0.0
2017-Jul-11 19:30N 40°48' W 073°59'0 0.0
2017-Jul-11 19:00N 40°48' W 073°59'0 0.0
2017-Jul-11 18:30N 40°48' W 073°59'0 0.0
2017-Jul-11 17:42N 40°48' W 073°59'0 0.0
2017-Jul-11 17:27N 40°48' W 073°59'0 0.0
2017-Jul-11 16:57N 40°48' W 073°59'0 0.0
2017-Jul-11 16:30N 40°48' W 073°59'0 0.0
2017-Jul-11 15:45N 40°48' W 073°59'0 0.0
2017-Jul-11 15:30N 40°48' W 073°59'0 0.0
2017-Jul-11 14:54N 40°48' W 073°59'0 0.0
2017-Jul-11 14:27N 40°48' W 073°59'0 0.0
2017-Jul-11 13:57N 40°48' W 073°59'0 0.0
2017-Jul-11 13:27N 40°48' W 073°59'0 0.0
2017-Jul-11 12:57N 40°48' W 073°59'0 0.0
2017-Jul-11 12:30N 40°48' W 073°59'0 0.0
2017-Jul-11 11:18N 40°48' W 073°59'0 0.0
2017-Jul-11 11:00N 40°48' W 073°59'0 0.0
2017-Jul-11 10:12N 40°48' W 073°59'0 0.0
2017-Jul-11 10:00N 40°48' W 073°59'0 0.0
2017-Jul-11 09:30N 40°48' W 073°59'0 0.0
2017-Jul-11 08:57N 40°48' W 073°59'0 0.0
2017-Jul-11 08:27N 40°48' W 073°59'0 0.0
2017-Jul-11 07:57N 40°48' W 073°59'0 0.0
2017-Jul-11 07:21N 40°48' W 073°59'0 0.0
2017-Jul-11 07:00N 40°48' W 073°59'0 0.0
2017-Jul-11 06:30N 40°48' W 073°59'0 0.0
2017-Jul-11 06:00N 40°48' W 073°59'0 0.0
2017-Jul-11 05:24N 40°48' W 073°59'0 0.0
2017-Jul-11 04:51N 40°48' W 073°59'0 0.0
2017-Jul-11 04:09N 40°48' W 073°59'0 0.0
2017-Jul-11 03:51N 40°48' W 073°59'0 0.0
2017-Jul-11 03:15N 40°48' W 073°59'0 0.0
2017-Jul-11 02:57N 40°48' W 073°59'0 0.0
2017-Jul-11 02:30N 40°48' W 073°59'0 0.0
2017-Jul-11 02:00N 40°48' W 073°59'0 0.0
2017-Jul-11 01:09N 40°48' W 073°59'0 0.0
2017-Jul-11 00:45N 40°48' W 073°59'0 0.0
2017-Jul-11 00:30N 40°48' W 073°59'0 0.0
2017-Jul-10 23:09N 40°48' W 073°59'0 0.0
2017-Jul-10 22:57N 40°48' W 073°59'0 0.0
2017-Jul-10 22:21N 40°48' W 073°59'0 0.0
2017-Jul-10 21:57N 40°48' W 073°59'0 0.0
2017-Jul-10 21:18N 40°48' W 073°59'0 0.0
2017-Jul-10 20:57N 40°48' W 073°59'0 0.0
2017-Jul-10 20:15N 40°48' W 073°59'0 0.0
2017-Jul-10 19:54N 40°48' W 073°59'0 0.0
2017-Jul-10 19:30N 40°48' W 073°59'0 0.0
2017-Jul-10 18:57N 40°48' W 073°59'0 0.0
2017-Jul-10 18:15N 40°48' W 073°59'0 0.0
2017-Jul-10 17:51N 40°48' W 073°59'0 0.0
2017-Jul-10 17:27N 40°48' W 073°59'  
Track history (hours):
 
Tides and Currents Weather Stations Pressure Air Temp Water Temp Dewpoint Dewpoint Depression Visibility Wind Speed Wind Dir Waves Ship Positions

Opsrey

Owner: Clarke Jr, John H, Centreville, MD. More information available from US FCC via Universal Licensing System and Coast Guard Vessel Documentation Center.

Last reported at 2017-Jul-20 17:21 UTC. Time now 2017-Jul-28 10:57 UTC.
Position N 40°44' W 073°58'.

Length 14 m.

Type: Sailing vessel. MMSI: 367197380.

Date/timePositionNaut miles runAvg speedWind from/ knotsBaromVisibWave heightAir tempDewpointWater temp
2017-Jul-20 17:21N 40°44' W 073°58'1 3.4
2017-Jul-20 16:56N 40°43' W 073°58'1 1.8
2017-Jul-20 16:28N 40°42' W 073°59'1 1.2
2017-Jul-20 15:45N 40°42' W 074°00'1 3.2
2017-Jul-20 15:31N 40°42' W 074°01'1 1.8
2017-Jul-20 14:59N 40°43' W 074°02'5 0.3
2017-Jul-19 20:17N 40°48' W 073°59'0 1.1
2017-Jul-19 19:54N 40°48' W 073°59'1 3.0
2017-Jul-19 19:25N 40°49' W 073°58'2 3.8
2017-Jul-19 19:00N 40°51' W 073°57'0 0.4
2017-Jul-19 18:30N 40°51' W 073°57'2 4.1
2017-Jul-19 18:00N 40°49' W 073°58'2 3.7
2017-Jul-19 17:30N 40°47' W 073°60'1 0.0
2017-Jul-17 16:56N 40°48' W 073°59'0 0.0
2017-Jul-17 16:26N 40°48' W 073°59'0 0.0
2017-Jul-17 15:59N 40°48' W 073°59'0 0.0
2017-Jul-17 15:29N 40°48' W 073°59'0 0.0
2017-Jul-17 14:59N 40°48' W 073°59'0 0.0
2017-Jul-17 14:29N 40°48' W 073°59'0 0.0
2017-Jul-17 13:50N 40°48' W 073°59'0 0.0
2017-Jul-17 13:23N 40°48' W 073°59'0 0.0
2017-Jul-17 12:50N 40°48' W 073°59'0 0.0
2017-Jul-17 12:23N 40°48' W 073°59'0 0.0
2017-Jul-17 11:59N 40°48' W 073°59'0 0.0
2017-Jul-17 11:26N 40°48' W 073°59'0 0.0
2017-Jul-17 10:53N 40°48' W 073°59'0 0.0
2017-Jul-17 10:29N 40°48' W 073°59'0 0.0
2017-Jul-17 09:59N 40°48' W 073°59'0 0.0
2017-Jul-17 09:29N 40°48' W 073°59'0 0.0
2017-Jul-17 08:56N 40°48' W 073°59'0 0.0
2017-Jul-17 08:29N 40°48' W 073°59'0 0.0
2017-Jul-17 07:50N 40°48' W 073°59'0 0.0
2017-Jul-17 07:23N 40°48' W 073°59'0 0.0
2017-Jul-17 06:56N 40°48' W 073°59'0 0.0
2017-Jul-17 06:26N 40°48' W 073°59'0 0.0
2017-Jul-17 05:56N 40°48' W 073°59'0 0.0
2017-Jul-17 05:29N 40°48' W 073°59'0 0.0
2017-Jul-17 04:59N 40°48' W 073°59'0 0.0
2017-Jul-17 04:29N 40°48' W 073°59'0 0.0
2017-Jul-17 03:59N 40°48' W 073°59'0 0.0
2017-Jul-17 03:29N 40°48' W 073°59'0 0.0
2017-Jul-17 02:59N 40°48' W 073°59'0 0.0
2017-Jul-17 02:26N 40°48' W 073°59'0 0.0
2017-Jul-17 01:59N 40°48' W 073°59'0 0.0
2017-Jul-17 01:26N 40°48' W 073°59'0 0.0
2017-Jul-17 00:59N 40°48' W 073°59'0 0.0
2017-Jul-17 00:29N 40°48' W 073°59'0 0.0
2017-Jul-16 23:50N 40°48' W 073°59'0 0.0
2017-Jul-16 23:17N 40°48' W 073°59'0 0.0
2017-Jul-16 22:59N 40°48' W 073°59'0 0.0
2017-Jul-16 22:14N 40°48' W 073°59'0 0.0
2017-Jul-16 21:44N 40°48' W 073°59'0 0.0
2017-Jul-16 21:17N 40°48' W 073°59'0 0.0
2017-Jul-16 20:59N 40°48' W 073°59'0 0.0
2017-Jul-16 20:20N 40°48' W 073°59'0 0.0
2017-Jul-16 19:50N 40°48' W 073°59'0 0.0
2017-Jul-16 19:29N 40°48' W 073°59'0 0.0
2017-Jul-16 18:59N 40°48' W 073°59'0 0.0
2017-Jul-16 18:26N 40°48' W 073°59'0 0.0
2017-Jul-16 17:56N 40°48' W 073°59'0 0.0
2017-Jul-16 17:29N 40°48' W 073°59'0 0.0
2017-Jul-16 16:56N 40°48' W 073°59'0 0.0
2017-Jul-16 16:26N 40°48' W 073°59'0 0.0
2017-Jul-16 15:59N 40°48' W 073°59'0 0.0
2017-Jul-16 15:29N 40°48' W 073°59'0 0.0
2017-Jul-16 14:53N 40°48' W 073°59'0 0.0
2017-Jul-16 14:29N 40°48' W 073°59'0 0.0
2017-Jul-16 13:53N 40°48' W 073°59'0 0.0
2017-Jul-16 13:29N 40°48' W 073°59'0 0.0
2017-Jul-16 12:59N 40°48' W 073°59'0 0.0
2017-Jul-16 12:20N 40°48' W 073°59'0 0.0
2017-Jul-16 11:59N 40°48' W 073°59'0 0.0
2017-Jul-16 11:11N 40°48' W 073°59'0 0.0
2017-Jul-16 10:59N 40°48' W 073°59'0 0.0
2017-Jul-16 10:23N 40°48' W 073°59'0 0.0
2017-Jul-16 09:59N 40°48' W 073°59'0 0.0
2017-Jul-16 09:26N 40°48' W 073°59'0 0.0
2017-Jul-16 08:59N 40°48' W 073°59'0 0.0
2017-Jul-16 08:26N 40°48' W 073°59'0 0.0
2017-Jul-16 07:53N 40°48' W 073°59'0 0.0
2017-Jul-16 07:26N 40°48' W 073°59'0 0.0
2017-Jul-16 06:56N 40°48' W 073°59'0 0.0
2017-Jul-16 06:11N 40°48' W 073°59'0 0.0
2017-Jul-16 05:53N 40°48' W 073°59'0 0.0
2017-Jul-16 05:26N 40°48' W 073°59'0 0.0
2017-Jul-16 04:50N 40°48' W 073°59'0 0.0
2017-Jul-16 04:26N 40°48' W 073°59'0 0.0
2017-Jul-16 03:50N 40°48' W 073°59'0 0.0
2017-Jul-16 03:20N 40°48' W 073°59'0 0.0
2017-Jul-16 02:56N 40°48' W 073°59'0 0.0
2017-Jul-16 02:29N 40°48' W 073°59'0 0.0
2017-Jul-16 01:59N 40°48' W 073°59'0 0.0
2017-Jul-16 01:29N 40°48' W 073°59'0 0.0
2017-Jul-16 00:59N 40°48' W 073°59'0 0.0
2017-Jul-16 00:29N 40°48' W 073°59'0 0.0
2017-Jul-15 23:59N 40°48' W 073°59'0 0.0
2017-Jul-15 23:29N 40°48' W 073°59'0 0.0
2017-Jul-15 22:59N 40°48' W 073°59'0 0.0
2017-Jul-15 22:29N 40°48' W 073°59'0 0.0
2017-Jul-15 21:59N 40°48' W 073°59'0 0.0
2017-Jul-15 21:29N 40°48' W 073°59'0 0.0
2017-Jul-15 20:59N 40°48' W 073°59'0 0.0
2017-Jul-15 20:20N 40°48' W 073°59'0 0.0
2017-Jul-15 19:59N 40°48' W 073°59'0 0.0
2017-Jul-15 19:26N 40°48' W 073°59'0 0.0
2017-Jul-15 18:35N 40°48' W 073°59'0 0.0
2017-Jul-15 18:26N 40°48' W 073°59'0 0.0
2017-Jul-15 17:38N 40°48' W 073°59'0 0.0
2017-Jul-15 17:26N 40°48' W 073°59'0 0.0
2017-Jul-15 16:59N 40°48' W 073°59'0 0.0
2017-Jul-15 16:23N 40°48' W 073°59'0 0.0
2017-Jul-15 15:53N 40°48' W 073°59'0 0.0
2017-Jul-15 15:26N 40°48' W 073°59'0 0.0
2017-Jul-15 14:32N 40°48' W 073°59'0 0.0
2017-Jul-15 13:53N 40°48' W 073°59'0 0.0
2017-Jul-15 13:29N 40°48' W 073°59'0 0.0
2017-Jul-15 12:59N 40°48' W 073°59'0 0.0
2017-Jul-15 12:26N 40°48' W 073°59'0 0.0
2017-Jul-15 11:59N 40°48' W 073°59'0 0.0
2017-Jul-15 11:29N 40°48' W 073°59'0 0.0
2017-Jul-15 10:53N 40°48' W 073°59'0 0.0
2017-Jul-15 10:23N 40°48' W 073°59'0 0.0
2017-Jul-15 09:44N 40°48' W 073°59'0 0.0
2017-Jul-15 09:29N 40°48' W 073°59'0 0.0
2017-Jul-15 08:53N 40°48' W 073°59'0 0.0
2017-Jul-15 08:29N 40°48' W 073°59'0 0.0
2017-Jul-15 06:56N 40°48' W 073°59'0 0.0
2017-Jul-15 06:29N 40°48' W 073°59'0 0.0
2017-Jul-15 05:56N 40°48' W 073°59'0 0.0
2017-Jul-15 05:23N 40°48' W 073°59'0 0.0
2017-Jul-15 04:44N 40°48' W 073°59'0 0.0
2017-Jul-15 04:26N 40°48' W 073°59'0 0.0
2017-Jul-15 03:50N 40°48' W 073°59'0 0.0
2017-Jul-15 03:29N 40°48' W 073°59'0 0.0
2017-Jul-15 02:59N 40°48' W 073°59'0 0.0
2017-Jul-15 02:26N 40°48' W 073°59'0 0.0
2017-Jul-15 01:57N 40°48' W 073°59'0 0.0
2017-Jul-15 01:26N 40°48' W 073°59'0 0.0
2017-Jul-15 00:59N 40°48' W 073°59'0 0.0
2017-Jul-15 00:26N 40°48' W 073°59'0 0.0
2017-Jul-14 23:59N 40°48' W 073°59'0 0.0
2017-Jul-14 23:30N 40°48' W 073°59'0 0.0
2017-Jul-14 22:56N 40°48' W 073°59'0 0.0
2017-Jul-14 22:30N 40°48' W 073°59'0 0.0
2017-Jul-14 21:56N 40°48' W 073°59'0 0.0
2017-Jul-14 21:24N 40°48' W 073°59'0 0.0
2017-Jul-14 20:57N 40°48' W 073°59'0 0.0
2017-Jul-14 20:24N 40°48' W 073°59'0 0.0
2017-Jul-14 19:03N 40°48' W 073°59'0 0.0
2017-Jul-14 18:54N 40°48' W 073°59'0 0.0
2017-Jul-14 18:21N 40°48' W 073°59'0 0.0
2017-Jul-14 16:57N 40°48' W 073°59'0 0.0
2017-Jul-14 15:33N 40°48' W 073°59'0 0.0
2017-Jul-14 14:45N 40°48' W 073°59'0 0.0
2017-Jul-14 14:27N 40°48' W 073°59'0 0.0
2017-Jul-14 13:54N 40°48' W 073°59'0 0.0
2017-Jul-14 13:30N 40°48' W 073°59'0 0.0
2017-Jul-14 12:57N 40°48' W 073°59'0 0.0
2017-Jul-14 12:30N 40°48' W 073°59'0 0.0
2017-Jul-14 11:57N 40°48' W 073°59'0 0.0
2017-Jul-14 11:30N 40°48' W 073°59'0 0.0
2017-Jul-14 10:57N 40°48' W 073°59'0 0.0
2017-Jul-14 10:30N 40°48' W 073°59'0 0.0
2017-Jul-14 10:00N 40°48' W 073°59'0 0.0
2017-Jul-14 09:27N 40°48' W 073°59'0 0.0
2017-Jul-14 08:57N 40°48' W 073°59'0 0.0
2017-Jul-14 08:27N 40°48' W 073°59'0 0.0
2017-Jul-14 08:00N 40°48' W 073°59'0 0.0
2017-Jul-14 07:30N 40°48' W 073°59'0 0.0
2017-Jul-14 06:27N 40°48' W 073°59'0 0.0
2017-Jul-14 05:57N 40°48' W 073°59'0 0.0
2017-Jul-14 05:27N 40°48' W 073°59'0 0.0
2017-Jul-14 04:57N 40°48' W 073°59'0 0.0
2017-Jul-14 04:27N 40°48' W 073°59'0 0.0
2017-Jul-14 03:57N 40°48' W 073°59'0 0.0
2017-Jul-14 03:24N 40°48' W 073°59'0 0.0
2017-Jul-14 02:57N 40°48' W 073°59'0 0.0
2017-Jul-14 02:21N 40°48' W 073°59'0 0.0
2017-Jul-14 01:57N 40°48' W 073°59'0 0.0
2017-Jul-14 01:30N 40°48' W 073°59'0 0.0
2017-Jul-14 01:00N 40°48' W 073°59'0 0.0
2017-Jul-14 00:24N 40°48' W 073°59'0 0.0
2017-Jul-13 23:54N 40°48' W 073°59'0 0.0
2017-Jul-13 23:30N 40°48' W 073°59'0 0.0
2017-Jul-13 23:00N 40°48' W 073°59'0 0.0
2017-Jul-13 22:24N 40°48' W 073°59'0 0.0
2017-Jul-13 22:00N 40°48' W 073°59'0 0.0
2017-Jul-13 21:24N 40°48' W 073°59'0 0.0
2017-Jul-13 20:54N 40°48' W 073°59'0 0.0
2017-Jul-13 20:30N 40°48' W 073°59'0 0.0
2017-Jul-13 20:00N 40°48' W 073°59'0 0.0
2017-Jul-13 19:30N 40°48' W 073°59'0 0.0
2017-Jul-13 18:57N 40°48' W 073°59'0 0.0
2017-Jul-13 18:27N 40°48' W 073°59'0 0.0
2017-Jul-13 17:51N 40°48' W 073°59'0 0.0
2017-Jul-13 17:27N 40°48' W 073°59'0 0.0
2017-Jul-13 16:54N 40°48' W 073°59'0 0.0
2017-Jul-13 16:30N 40°48' W 073°59'0 0.0
2017-Jul-13 15:03N 40°48' W 073°59'0 0.0
2017-Jul-13 14:51N 40°48' W 073°59'0 0.0
2017-Jul-13 14:27N 40°48' W 073°59'0 0.0
2017-Jul-13 13:57N 40°48' W 073°59'0 0.0
2017-Jul-13 13:30N 40°48' W 073°59'0 0.0
2017-Jul-13 12:57N 40°48' W 073°59'0 0.0
2017-Jul-13 12:27N 40°48' W 073°59'0 0.0
2017-Jul-13 12:00N 40°48' W 073°59'0 0.0
2017-Jul-13 10:48N 40°48' W 073°59'0 0.0
2017-Jul-13 10:30N 40°48' W 073°59'0 0.0
2017-Jul-13 10:00N 40°48' W 073°59'0 0.0
2017-Jul-13 09:27N 40°48' W 073°59'0 0.0
2017-Jul-13 09:00N 40°48' W 073°59'0 0.0
2017-Jul-13 08:30N 40°48' W 073°59'0 0.0
2017-Jul-13 08:00N 40°48' W 073°59'0 0.0
2017-Jul-13 07:30N 40°48' W 073°59'0 0.0
2017-Jul-13 06:57N 40°48' W 073°59'0 0.0
2017-Jul-13 06:03N 40°48' W 073°59'0 0.0
2017-Jul-13 05:57N 40°48' W 073°59'0 0.0
2017-Jul-13 04:03N 40°48' W 073°59'0 0.0
2017-Jul-13 03:51N 40°48' W 073°59'0 0.0
2017-Jul-13 03:21N 40°48' W 073°59'0 0.0
2017-Jul-13 02:57N 40°48' W 073°59'0 0.0
2017-Jul-13 01:09N 40°48' W 073°59'0 0.0
2017-Jul-13 00:45N 40°48' W 073°59'0 0.0
2017-Jul-13 00:21N 40°48' W 073°59'0 0.0
2017-Jul-12 23:48N 40°48' W 073°59'0 0.0
2017-Jul-12 23:30N 40°48' W 073°59'0 0.0
2017-Jul-12 23:00N 40°48' W 073°59'0 0.0
2017-Jul-12 22:30N 40°48' W 073°59'0 0.0
2017-Jul-12 21:57N 40°48' W 073°59'0 0.0
2017-Jul-12 21:15N 40°48' W 073°59'0 0.0
2017-Jul-12 20:54N 40°48' W 073°59'0 0.0
2017-Jul-12 20:30N 40°48' W 073°59'0 0.0
2017-Jul-12 20:00N 40°48' W 073°59'0 0.0
2017-Jul-12 19:27N 40°48' W 073°59'0 0.0
2017-Jul-12 18:51N 40°48' W 073°59'0 0.0
2017-Jul-12 17:51N 40°48' W 073°59'0 0.0
2017-Jul-12 17:27N 40°48' W 073°59'0 0.0
2017-Jul-12 17:00N 40°48' W 073°59'0 0.0
2017-Jul-12 16:21N 40°48' W 073°59'0 0.0
2017-Jul-12 15:45N 40°48' W 073°59'0 0.0
2017-Jul-12 15:27N 40°48' W 073°59'0 0.0
2017-Jul-12 14:48N 40°48' W 073°59'0 0.0
2017-Jul-12 13:57N 40°48' W 073°59'0 0.0
2017-Jul-12 13:30N 40°48' W 073°59'0 0.0
2017-Jul-12 12:57N 40°48' W 073°59'0 0.0
2017-Jul-12 12:30N 40°48' W 073°59'0 0.0
2017-Jul-12 12:00N 40°48' W 073°59'0 0.0
2017-Jul-12 11:27N 40°48' W 073°59'0 0.0
2017-Jul-12 10:39N 40°48' W 073°59'0 0.0
2017-Jul-12 10:27N 40°48' W 073°59'0 0.0
2017-Jul-12 10:00N 40°48' W 073°59'0 0.0
2017-Jul-12 09:03N 40°48' W 073°59'0 0.0
2017-Jul-12 08:57N 40°48' W 073°59'0 0.0
2017-Jul-12 08:27N 40°48' W 073°59'0 0.0
2017-Jul-12 07:57N 40°48' W 073°59'0 0.0
2017-Jul-12 07:21N 40°48' W 073°59'0 0.0
2017-Jul-12 07:00N 40°48' W 073°59'0 0.0
2017-Jul-12 06:30N 40°48' W 073°59'0 0.0
2017-Jul-12 06:00N 40°48' W 073°59'0 0.0
2017-Jul-12 05:27N 40°48' W 073°59'0 0.0
2017-Jul-12 04:57N 40°48' W 073°59'0 0.0
2017-Jul-12 04:30N 40°48' W 073°59'0 0.0
2017-Jul-12 03:45N 40°48' W 073°59'0 0.0
2017-Jul-12 03:30N 40°48' W 073°59'0 0.0
2017-Jul-12 02:42N 40°48' W 073°59'0 0.0
2017-Jul-12 02:09N 40°48' W 073°59'0 0.0
2017-Jul-12 01:57N 40°48' W 073°59'0 0.0
2017-Jul-12 00:33N 40°48' W 073°59'0 0.1
2017-Jul-12 00:27N 40°48' W 073°59'0 0.0
2017-Jul-12 00:00N 40°48' W 073°59'0 0.0
2017-Jul-11 23:30N 40°48' W 073°59'0 0.0
2017-Jul-11 22:39N 40°48' W 073°59'0 0.0
2017-Jul-11 22:30N 40°48' W 073°59'0 0.0
2017-Jul-11 22:00N 40°48' W 073°59'0 0.0
2017-Jul-11 21:27N 40°48' W 073°59'0 0.0
2017-Jul-11 21:00N 40°48' W 073°59'0 0.0
2017-Jul-11 20:21N 40°48' W 073°59'0 0.0
2017-Jul-11 19:57N 40°48' W 073°59'0 0.0
2017-Jul-11 19:30N 40°48' W 073°59'0 0.0
2017-Jul-11 19:00N 40°48' W 073°59'0 0.0
2017-Jul-11 18:30N 40°48' W 073°59'0 0.0
2017-Jul-11 17:42N 40°48' W 073°59'0 0.0
2017-Jul-11 17:27N 40°48' W 073°59'0 0.0
2017-Jul-11 16:57N 40°48' W 073°59'0 0.0
2017-Jul-11 16:30N 40°48' W 073°59'0 0.0
2017-Jul-11 15:45N 40°48' W 073°59'0 0.0
2017-Jul-11 15:30N 40°48' W 073°59'0 0.0
2017-Jul-11 14:54N 40°48' W 073°59'0 0.0
2017-Jul-11 14:27N 40°48' W 073°59'0 0.0
2017-Jul-11 13:57N 40°48' W 073°59'0 0.0
2017-Jul-11 13:27N 40°48' W 073°59'0 0.0
2017-Jul-11 12:57N 40°48' W 073°59'0 0.0
2017-Jul-11 12:30N 40°48' W 073°59'0 0.0
2017-Jul-11 11:18N 40°48' W 073°59'0 0.0
2017-Jul-11 11:00N 40°48' W 073°59'0 0.0
2017-Jul-11 10:12N 40°48' W 073°59'0 0.0
2017-Jul-11 10:00N 40°48' W 073°59'0 0.0
2017-Jul-11 09:30N 40°48' W 073°59'0 0.0
2017-Jul-11 08:57N 40°48' W 073°59'0 0.0
2017-Jul-11 08:27N 40°48' W 073°59'0 0.0
2017-Jul-11 07:57N 40°48' W 073°59'0 0.0
2017-Jul-11 07:21N 40°48' W 073°59'0 0.0
2017-Jul-11 07:00N 40°48' W 073°59'0 0.0
2017-Jul-11 06:30N 40°48' W 073°59'0 0.0
2017-Jul-11 06:00N 40°48' W 073°59'0 0.0
2017-Jul-11 05:24N 40°48' W 073°59'0 0.0
2017-Jul-11 04:51N 40°48' W 073°59'0 0.0
2017-Jul-11 04:09N 40°48' W 073°59'0 0.0
2017-Jul-11 03:51N 40°48' W 073°59'0 0.0
2017-Jul-11 03:15N 40°48' W 073°59'0 0.0
2017-Jul-11 02:57N 40°48' W 073°59'0 0.0
2017-Jul-11 02:30N 40°48' W 073°59'0 0.0
2017-Jul-11 02:00N 40°48' W 073°59'0 0.0
2017-Jul-11 01:09N 40°48' W 073°59'0 0.0
2017-Jul-11 00:45N 40°48' W 073°59'0 0.0
2017-Jul-11 00:30N 40°48' W 073°59'0 0.0
2017-Jul-10 23:09N 40°48' W 073°59'0 0.0
2017-Jul-10 22:57N 40°48' W 073°59'0 0.0
2017-Jul-10 22:21N 40°48' W 073°59'0 0.0
2017-Jul-10 21:57N 40°48' W 073°59'0 0.0
2017-Jul-10 21:18N 40°48' W 073°59'0 0.0
2017-Jul-10 20:57N 40°48' W 073°59'0 0.0
2017-Jul-10 20:15N 40°48' W 073°59'0 0.0
2017-Jul-10 19:54N 40°48' W 073°59'0 0.0
2017-Jul-10 19:30N 40°48' W 073°59'0 0.0
2017-Jul-10 18:57N 40°48' W 073°59'0 0.0
2017-Jul-10 18:15N 40°48' W 073°59'0 0.0
2017-Jul-10 17:51N 40°48' W 073°59'0 0.0
2017-Jul-10 17:27N 40°48' W 073°59'  

Dump ship's entire track history